createdAt,value
2022-10-13T00:01:25.955Z,61.00
2022-10-13T00:03:52.793Z,61.10
2022-10-13T00:06:19.366Z,61.20
2022-10-13T00:08:45.939Z,61.00
2022-10-13T00:11:12.513Z,61.10
2022-10-13T00:13:39.303Z,61.30
2022-10-13T00:16:05.883Z,61.00
2022-10-13T00:18:32.461Z,60.90
2022-10-13T00:20:59.038Z,61.00
2022-10-13T00:23:25.609Z,60.90
2022-10-13T00:25:52.176Z,61.10
2022-10-13T00:28:19.044Z,61.00
2022-10-13T00:30:45.642Z,61.10
2022-10-13T00:33:12.229Z,62.00
2022-10-13T00:35:38.800Z,61.10
2022-10-13T00:38:05.393Z,61.10
2022-10-13T00:40:31.976Z,61.10
2022-10-13T00:42:58.564Z,61.10
2022-10-13T00:45:25.133Z,61.00
2022-10-13T00:47:51.699Z,61.10
2022-10-13T00:50:18.287Z,61.00
2022-10-13T00:52:44.856Z,61.00
2022-10-13T00:55:11.441Z,61.00
2022-10-13T00:57:38.244Z,61.10
2022-10-13T01:00:04.821Z,61.10
2022-10-13T01:02:31.387Z,61.10
2022-10-13T01:04:57.961Z,61.10
2022-10-13T01:07:24.542Z,61.00
2022-10-13T01:09:51.117Z,61.10
2022-10-13T01:12:17.980Z,61.10
2022-10-13T01:14:45.019Z,61.00
2022-10-13T01:17:11.588Z,61.10
2022-10-13T01:19:38.162Z,61.10
2022-10-13T01:22:04.742Z,61.10
2022-10-13T01:24:31.322Z,61.10
2022-10-13T01:26:58.126Z,61.10
2022-10-13T01:29:24.701Z,61.10
2022-10-13T01:31:51.289Z,61.10
2022-10-13T01:34:17.863Z,61.10
2022-10-13T01:36:44.437Z,61.10
2022-10-13T01:39:11.015Z,61.00
2022-10-13T01:41:37.595Z,61.10
2022-10-13T01:44:04.183Z,61.10
2022-10-13T01:46:30.779Z,61.00
2022-10-13T01:48:57.582Z,61.00
2022-10-13T01:51:24.152Z,61.00
2022-10-13T01:53:51.103Z,61.00
2022-10-13T01:56:17.687Z,61.10
2022-10-13T01:58:44.280Z,61.00
2022-10-13T02:01:11.132Z,61.00
2022-10-13T02:03:37.811Z,61.00
2022-10-13T02:06:04.601Z,61.00
2022-10-13T02:08:31.196Z,61.00
2022-10-13T02:10:57.772Z,61.00
2022-10-13T02:13:24.367Z,61.00
2022-10-13T02:15:50.945Z,61.00
2022-10-13T02:18:17.552Z,61.00
2022-10-13T02:20:44.133Z,61.00
2022-10-13T02:23:10.724Z,61.00
2022-10-13T02:25:37.301Z,61.00
2022-10-13T02:28:04.090Z,61.00
2022-10-13T02:30:30.684Z,60.90
2022-10-13T02:32:57.284Z,60.90
2022-10-13T02:35:23.884Z,60.90
2022-10-13T02:37:50.707Z,61.00
2022-10-13T02:40:17.480Z,61.00
2022-10-13T02:42:44.310Z,60.90
2022-10-13T02:45:11.090Z,61.00
2022-10-13T02:47:37.651Z,61.00
2022-10-13T02:50:04.226Z,61.00
2022-10-13T02:52:30.829Z,60.90
2022-10-13T02:54:57.425Z,60.90
2022-10-13T02:57:24.009Z,60.90
2022-10-13T02:59:50.789Z,61.00
2022-10-13T03:02:18.312Z,60.90
2022-10-13T03:04:45.090Z,60.90
2022-10-13T03:07:11.680Z,60.90
2022-10-13T03:09:38.256Z,60.90
2022-10-13T03:12:04.848Z,60.90
2022-10-13T03:14:31.415Z,60.90
2022-10-13T03:16:58.024Z,60.90
2022-10-13T03:19:24.595Z,60.90
2022-10-13T03:21:51.181Z,60.80
2022-10-13T03:24:17.959Z,60.80
2022-10-13T03:26:44.745Z,60.90
2022-10-13T03:29:11.317Z,60.90
2022-10-13T03:31:37.899Z,60.90
2022-10-13T03:34:04.473Z,60.90
2022-10-13T03:36:31.255Z,60.90
2022-10-13T03:38:58.070Z,60.80
2022-10-13T03:41:24.655Z,60.90
2022-10-13T03:43:51.235Z,60.90
2022-10-13T03:46:17.808Z,60.90
2022-10-13T03:48:44.379Z,60.90
2022-10-13T03:51:11.150Z,60.90
2022-10-13T03:53:37.740Z,60.90
2022-10-13T03:56:04.311Z,60.90
2022-10-13T03:58:30.880Z,60.90
2022-10-13T04:00:57.462Z,61.00
2022-10-13T04:03:24.255Z,60.90
2022-10-13T04:05:50.825Z,60.90
2022-10-13T04:08:17.422Z,60.80
2022-10-13T04:10:43.997Z,60.90
2022-10-13T04:13:10.778Z,60.90
2022-10-13T04:15:37.347Z,60.90
2022-10-13T04:18:03.920Z,61.00
2022-10-13T04:20:30.516Z,60.90
2022-10-13T04:22:57.341Z,60.90
2022-10-13T04:25:23.946Z,60.80
2022-10-13T04:27:50.524Z,60.90
2022-10-13T04:30:17.947Z,60.80
2022-10-13T04:32:44.527Z,60.90
2022-10-13T04:35:11.100Z,60.80
2022-10-13T04:37:40.548Z,60.90
2022-10-13T04:40:10.789Z,60.90
2022-10-13T04:42:37.588Z,60.90
2022-10-13T04:45:04.179Z,60.90
2022-10-13T04:47:36.123Z,60.80
2022-10-13T04:50:03.762Z,60.90
2022-10-13T04:52:30.357Z,60.90
2022-10-13T04:54:56.948Z,60.90
2022-10-13T04:57:23.535Z,60.90
2022-10-13T04:59:50.117Z,60.90
2022-10-13T05:02:16.928Z,60.80
2022-10-13T05:04:43.630Z,60.80
2022-10-13T05:07:18.006Z,60.80
2022-10-13T05:09:45.187Z,60.80
2022-10-13T05:12:12.352Z,60.80
2022-10-13T05:14:38.943Z,60.80
2022-10-13T05:17:05.532Z,60.70
2022-10-13T05:19:32.307Z,60.80
2022-10-13T05:21:59.133Z,60.80
2022-10-13T05:24:25.728Z,60.80
2022-10-13T05:26:52.319Z,60.80
2022-10-13T05:29:18.904Z,60.80
2022-10-13T05:31:45.699Z,60.80
2022-10-13T05:34:12.306Z,60.90
2022-10-13T05:36:39.123Z,60.80
2022-10-13T05:39:05.714Z,60.80
2022-10-13T05:41:32.301Z,60.80
2022-10-13T05:43:58.867Z,60.80
2022-10-13T05:46:25.467Z,60.80
2022-10-13T05:48:52.060Z,60.80
2022-10-13T05:51:18.649Z,60.80
2022-10-13T05:53:49.606Z,60.80
2022-10-13T05:56:17.710Z,60.80
2022-10-13T05:58:44.285Z,60.80
2022-10-13T06:01:10.868Z,60.80
2022-10-13T06:03:37.435Z,60.70
2022-10-13T06:06:04.025Z,60.80
2022-10-13T06:08:30.609Z,60.80
2022-10-13T06:10:57.197Z,60.80
2022-10-13T06:13:23.999Z,60.70
2022-10-13T06:15:50.578Z,60.80
2022-10-13T06:18:17.363Z,60.80
2022-10-13T06:20:43.931Z,60.70
2022-10-13T06:23:10.520Z,60.70
2022-10-13T06:25:37.113Z,60.70
2022-10-13T06:28:03.682Z,60.70
2022-10-13T06:30:30.278Z,60.70
2022-10-13T06:32:56.860Z,60.70
2022-10-13T06:35:23.431Z,60.70
2022-10-13T06:37:50.243Z,60.70
2022-10-13T06:40:16.823Z,60.70
2022-10-13T06:42:43.409Z,60.70
2022-10-13T06:45:09.975Z,60.70
2022-10-13T06:47:36.560Z,60.60
2022-10-13T06:50:03.378Z,60.60
2022-10-13T06:52:29.956Z,60.60
2022-10-13T06:54:56.528Z,60.60
2022-10-13T06:57:23.342Z,60.60
2022-10-13T06:59:50.151Z,60.70
2022-10-13T07:02:16.821Z,60.60
2022-10-13T07:04:43.446Z,60.60
2022-10-13T07:07:10.243Z,60.70
2022-10-13T07:09:36.826Z,60.60
2022-10-13T07:12:03.616Z,60.60
2022-10-13T07:14:30.204Z,60.50
2022-10-13T07:16:56.989Z,60.50
2022-10-13T07:19:23.581Z,60.50
2022-10-13T07:21:50.159Z,60.50
2022-10-13T07:24:16.944Z,60.50
2022-10-13T07:26:43.723Z,60.60
2022-10-13T07:29:10.297Z,60.50
2022-10-13T07:31:37.079Z,60.50
2022-10-13T07:34:03.678Z,60.50
2022-10-13T07:36:30.286Z,60.50
2022-10-13T07:38:56.873Z,60.40
2022-10-13T07:41:23.839Z,60.50
2022-10-13T07:43:50.418Z,60.40
2022-10-13T07:46:16.989Z,60.40
2022-10-13T07:48:43.568Z,60.50
2022-10-13T07:51:10.149Z,60.40
2022-10-13T07:53:36.961Z,60.50
2022-10-13T07:56:03.540Z,60.50
2022-10-13T07:58:30.137Z,60.50
2022-10-13T08:00:56.721Z,60.50
2022-10-13T08:03:23.556Z,60.40
2022-10-13T08:05:50.154Z,60.50
2022-10-13T08:08:16.723Z,60.50
2022-10-13T08:10:43.350Z,60.40
2022-10-13T08:13:09.937Z,60.40
2022-10-13T08:15:36.753Z,60.40
2022-10-13T08:18:03.338Z,60.40
2022-10-13T08:20:40.969Z,60.40
2022-10-13T08:23:10.064Z,60.40
2022-10-13T08:25:36.635Z,60.30
2022-10-13T08:28:03.209Z,60.30
2022-10-13T08:30:29.884Z,60.30
2022-10-13T08:32:56.775Z,60.30
2022-10-13T08:35:23.363Z,60.30
2022-10-13T08:37:50.153Z,60.20
2022-10-13T08:40:16.750Z,60.10
2022-10-13T08:42:43.328Z,60.10
2022-10-13T08:45:39.293Z,60.10
2022-10-13T08:47:56.487Z,60.10
2022-10-13T08:50:23.055Z,60.00
2022-10-13T08:52:49.637Z,60.00
2022-10-13T08:55:16.503Z,60.10
2022-10-13T08:57:43.073Z,60.10
2022-10-13T09:00:09.650Z,60.00
2022-10-13T09:02:36.316Z,60.10
2022-10-13T09:05:02.907Z,60.00
2022-10-13T09:07:29.511Z,60.10
2022-10-13T09:09:56.109Z,60.00
2022-10-13T09:12:22.798Z,60.00
2022-10-13T09:14:49.430Z,60.00
2022-10-13T09:17:16.023Z,60.00
2022-10-13T09:19:42.590Z,60.00
2022-10-13T09:22:09.151Z,60.00
2022-10-13T09:24:35.735Z,60.00
2022-10-13T09:27:02.564Z,60.00
2022-10-13T09:29:29.164Z,60.00
2022-10-13T09:31:55.741Z,60.00
2022-10-13T09:34:22.341Z,60.10
2022-10-13T09:36:48.917Z,60.00
2022-10-13T09:39:15.512Z,60.00
2022-10-13T09:41:42.088Z,60.00
2022-10-13T09:44:08.672Z,60.00
2022-10-13T09:46:35.252Z,61.00
2022-10-13T09:49:01.851Z,60.00
2022-10-13T09:51:28.464Z,60.10
2022-10-13T09:53:55.306Z,60.10
2022-10-13T09:56:21.922Z,60.00
2022-10-13T09:58:48.512Z,60.10
2022-10-13T10:01:15.094Z,60.10
2022-10-13T10:03:41.719Z,60.10
2022-10-13T10:06:08.319Z,60.00
2022-10-13T10:08:58.071Z,60.10
2022-10-13T10:11:21.637Z,60.10
2022-10-13T10:13:48.231Z,60.00
2022-10-13T10:16:14.842Z,60.10
2022-10-13T10:18:41.420Z,60.00
2022-10-13T10:21:08.319Z,60.00
2022-10-13T10:23:34.904Z,60.00
2022-10-13T10:26:01.503Z,60.00
2022-10-13T10:28:28.345Z,60.00
2022-10-13T10:30:54.950Z,60.00
2022-10-13T10:33:21.516Z,60.00
2022-10-13T10:35:48.118Z,60.00
2022-10-13T10:38:14.696Z,59.90
2022-10-13T10:40:41.282Z,59.80
2022-10-13T10:43:07.854Z,59.80
2022-10-13T10:45:34.444Z,59.70
2022-10-13T10:48:01.035Z,59.70
2022-10-13T10:50:27.606Z,59.80
2022-10-13T10:52:54.181Z,59.90
2022-10-13T10:55:20.798Z,60.00
2022-10-13T10:57:47.400Z,60.00
2022-10-13T11:00:14.019Z,60.00
2022-10-13T11:02:40.677Z,60.00
2022-10-13T11:05:07.255Z,60.00
2022-10-13T11:07:33.822Z,60.00
2022-10-13T11:10:00.617Z,60.00
2022-10-13T11:12:27.207Z,60.00
2022-10-13T11:14:54.007Z,60.00
2022-10-13T11:17:20.609Z,60.00
2022-10-13T11:19:47.195Z,60.00
2022-10-13T11:22:13.762Z,59.90
2022-10-13T11:24:40.358Z,60.00
2022-10-13T11:27:06.966Z,60.00
2022-10-13T11:29:33.777Z,59.90
2022-10-13T11:32:00.358Z,60.00
2022-10-13T11:34:26.958Z,59.90
2022-10-13T11:36:53.559Z,59.90
2022-10-13T11:39:20.210Z,59.90
2022-10-13T11:41:46.807Z,60.00
2022-10-13T11:44:13.590Z,60.00
2022-10-13T11:46:40.185Z,59.90
2022-10-13T11:49:06.778Z,59.90
2022-10-13T11:51:33.372Z,59.80
2022-10-13T11:54:00.317Z,59.90
2022-10-13T11:56:26.903Z,59.90
2022-10-13T11:58:53.490Z,59.90
2022-10-13T12:01:20.375Z,59.90
2022-10-13T12:03:46.946Z,59.80
2022-10-13T12:06:13.552Z,59.90
2022-10-13T12:08:40.163Z,59.80
2022-10-13T12:11:06.767Z,59.80
2022-10-13T12:13:33.368Z,59.80
2022-10-13T12:15:59.960Z,59.80
2022-10-13T12:18:26.565Z,61.00
2022-10-13T12:20:53.143Z,61.50
2022-10-13T12:23:19.930Z,61.50
2022-10-13T12:25:46.831Z,61.30
2022-10-13T12:28:13.514Z,61.30
2022-10-13T12:30:40.117Z,61.80
2022-10-13T12:33:06.688Z,61.40
2022-10-13T12:35:33.486Z,61.20
2022-10-13T12:38:00.060Z,61.80
2022-10-13T12:40:26.651Z,60.80
2022-10-13T12:42:53.233Z,60.00
2022-10-13T12:45:19.803Z,60.10
2022-10-13T12:47:46.401Z,60.30
2022-10-13T12:50:12.982Z,60.50
2022-10-13T12:52:39.794Z,59.20
2022-10-13T12:55:06.374Z,60.00
2022-10-13T12:57:32.939Z,59.90
2022-10-13T12:59:59.513Z,60.30
2022-10-13T13:02:26.153Z,60.60
2022-10-13T13:04:52.739Z,60.30
2022-10-13T13:07:19.541Z,61.10
2022-10-13T13:09:46.127Z,61.10
2022-10-13T13:12:12.712Z,60.70
2022-10-13T13:14:39.521Z,61.90
2022-10-13T13:17:06.042Z,60.20
2022-10-13T13:19:32.617Z,60.20
2022-10-13T13:21:59.201Z,59.70
2022-10-13T13:24:36.054Z,59.90
2022-10-13T13:27:05.961Z,61.60
2022-10-13T13:29:32.575Z,60.60
2022-10-13T13:31:59.155Z,61.50
2022-10-13T13:34:25.748Z,61.70
2022-10-13T13:36:52.797Z,61.50
2022-10-13T13:39:19.374Z,61.30
2022-10-13T13:41:45.964Z,61.80
2022-10-13T13:44:12.547Z,61.40
2022-10-13T13:46:39.143Z,61.70
2022-10-13T13:49:05.714Z,61.60
2022-10-13T13:51:32.349Z,61.00
2022-10-13T13:53:58.943Z,60.30
2022-10-13T13:56:25.517Z,60.80
2022-10-13T13:58:52.116Z,61.40
2022-10-13T14:01:18.770Z,61.40
2022-10-13T14:03:45.396Z,61.20
2022-10-13T14:06:12.212Z,61.80
2022-10-13T14:11:06.531Z,62.60
2022-10-13T14:13:33.131Z,61.90
2022-10-13T14:15:59.708Z,61.90
2022-10-13T14:18:26.279Z,61.80
2022-10-13T14:20:52.879Z,61.80
2022-10-13T14:23:19.660Z,61.80
2022-10-13T14:25:46.222Z,62.60
2022-10-13T14:28:17.300Z,61.60
2022-10-13T14:30:44.939Z,61.50
2022-10-13T14:33:11.751Z,61.50
2022-10-13T14:35:38.355Z,61.70
2022-10-13T14:38:04.920Z,61.50
2022-10-13T14:40:31.492Z,61.40
2022-10-13T14:42:58.074Z,61.40
2022-10-13T14:45:24.907Z,61.40
2022-10-13T14:47:51.488Z,61.50
2022-10-13T14:50:18.074Z,61.00
2022-10-13T14:52:44.673Z,61.30
2022-10-13T14:55:11.265Z,61.10
2022-10-13T14:57:38.072Z,61.30
2022-10-13T15:00:04.644Z,61.50
2022-10-13T15:02:31.216Z,61.20
2022-10-13T15:04:57.792Z,61.00
2022-10-13T15:07:24.447Z,61.30
2022-10-13T15:10:04.330Z,61.10
2022-10-13T15:12:32.092Z,61.30
2022-10-13T15:14:58.667Z,61.70
2022-10-13T15:17:25.264Z,61.70
2022-10-13T15:19:51.853Z,61.40
2022-10-13T15:22:18.985Z,61.40
2022-10-13T15:24:45.731Z,61.10
2022-10-13T15:27:12.295Z,61.40
2022-10-13T15:29:38.894Z,61.50
2022-10-13T15:32:05.667Z,61.50
2022-10-13T15:34:32.247Z,61.30
2022-10-13T15:36:58.831Z,61.50
2022-10-13T15:39:25.406Z,61.50
2022-10-13T15:41:52.008Z,61.20
2022-10-13T16:06:50.577Z,56.10
2022-10-13T16:09:17.184Z,59.30
2022-10-13T16:11:43.795Z,60.40
2022-10-13T16:14:10.420Z,60.80
2022-10-13T16:16:59.755Z,59.60
2022-10-13T16:19:26.913Z,60.10
2022-10-13T16:24:22.850Z,58.90
2022-10-13T16:26:49.467Z,60.90
2022-10-13T16:29:16.087Z,61.20
2022-10-13T16:31:42.683Z,61.20
2022-10-13T16:34:09.274Z,61.70
2022-10-13T16:36:35.932Z,61.60
2022-10-13T16:39:02.806Z,61.60
2022-10-13T16:41:29.409Z,61.70
2022-10-13T16:43:56.210Z,61.80
2022-10-13T16:46:22.821Z,62.00
2022-10-13T16:48:49.645Z,62.00
2022-10-13T16:51:16.269Z,61.70
2022-10-13T16:53:43.091Z,61.60
2022-10-13T16:56:09.679Z,62.50
2022-10-13T16:58:36.284Z,61.80
2022-10-13T17:01:03.206Z,62.10
2022-10-13T17:03:29.876Z,61.80
2022-10-13T17:05:56.679Z,61.70
2022-10-13T17:08:23.268Z,61.50
2022-10-13T17:10:56.539Z,61.50
2022-10-13T17:13:24.755Z,61.60
2022-10-13T17:15:51.403Z,61.70
2022-10-13T17:18:18.021Z,61.50
2022-10-13T17:20:44.629Z,61.50
2022-10-13T17:23:11.219Z,61.60
2022-10-13T17:25:37.834Z,61.70
2022-10-13T17:28:04.665Z,61.40
2022-10-13T17:30:31.284Z,61.50
2022-10-13T17:33:01.990Z,62.10
2022-10-13T17:35:30.724Z,61.70
2022-10-13T17:37:57.349Z,61.50
2022-10-13T17:40:24.175Z,61.50
2022-10-13T17:42:50.848Z,61.30
2022-10-13T17:45:17.450Z,61.30
2022-10-13T17:47:44.059Z,61.40
2022-10-13T17:50:10.670Z,61.30
2022-10-13T17:52:39.861Z,61.10
2022-10-13T17:55:06.679Z,60.60
2022-10-13T17:57:36.100Z,60.60
2022-10-13T18:00:02.722Z,60.40
2022-10-13T18:02:29.370Z,60.70
2022-10-13T18:04:55.968Z,61.50
2022-10-13T18:07:23.025Z,61.00
2022-10-13T18:09:49.837Z,60.30
2022-10-13T18:12:16.506Z,60.00
2022-10-13T18:14:43.105Z,60.20
2022-10-13T18:17:09.801Z,60.50
2022-10-13T18:19:40.109Z,60.20
2022-10-13T18:22:07.285Z,60.40
2022-10-13T18:24:34.259Z,60.60
2022-10-13T18:27:00.882Z,61.20
2022-10-13T18:29:27.481Z,61.10
2022-10-13T18:31:54.110Z,61.00
2022-10-13T18:34:20.739Z,61.00
2022-10-13T18:36:47.575Z,60.90
2022-10-13T18:39:14.188Z,60.70
2022-10-13T18:41:40.993Z,60.40
2022-10-13T18:44:07.811Z,60.80
2022-10-13T18:46:34.427Z,60.60
2022-10-13T18:49:01.055Z,60.20
2022-10-13T18:51:30.968Z,59.70
2022-10-13T18:54:01.396Z,60.00
2022-10-13T18:56:27.994Z,60.20
2022-10-13T18:58:59.186Z,60.40
2022-10-13T19:01:26.234Z,60.40
2022-10-13T19:03:52.852Z,60.30
2022-10-13T19:06:19.656Z,60.40
2022-10-13T19:08:46.279Z,60.50
2022-10-13T19:11:12.886Z,60.30
2022-10-13T19:13:39.502Z,60.40
2022-10-13T19:16:06.125Z,60.30
2022-10-13T19:18:32.749Z,60.10
2022-10-13T19:20:59.358Z,60.30
2022-10-13T19:23:25.982Z,60.30
2022-10-13T19:25:52.811Z,60.10
2022-10-13T19:28:19.457Z,60.10
2022-10-13T19:30:46.082Z,60.00
2022-10-13T19:33:12.678Z,60.00
2022-10-13T19:35:39.279Z,60.00
2022-10-13T19:38:05.882Z,60.00
2022-10-13T19:40:32.474Z,60.00
2022-10-13T19:42:59.076Z,59.40
2022-10-13T19:45:25.675Z,59.70
2022-10-13T19:47:52.294Z,59.70
2022-10-13T19:50:18.903Z,59.60
2022-10-13T19:52:45.521Z,59.80
2022-10-13T19:55:12.116Z,59.90
2022-10-13T19:57:38.709Z,59.70
2022-10-13T20:00:05.300Z,59.30
2022-10-13T20:02:31.897Z,59.50
2022-10-13T20:04:58.721Z,59.50
2022-10-13T20:07:25.339Z,59.60
2022-10-13T20:09:51.953Z,59.60
2022-10-13T20:12:18.549Z,59.40
2022-10-13T20:14:45.174Z,59.60
2022-10-13T20:17:11.783Z,59.80
2022-10-13T20:19:38.391Z,59.60
2022-10-13T20:22:04.989Z,59.40
2022-10-13T20:24:31.576Z,59.20
2022-10-13T20:26:58.395Z,59.30
2022-10-13T20:29:25.201Z,59.40
2022-10-13T20:31:51.795Z,59.40
2022-10-13T20:34:18.393Z,59.30
2022-10-13T20:36:45.013Z,59.40
2022-10-13T20:39:11.737Z,59.00
2022-10-13T20:41:38.636Z,59.00
2022-10-13T20:44:05.435Z,59.30
2022-10-13T20:46:32.233Z,59.20
2022-10-13T20:49:11.019Z,59.50
2022-10-13T20:51:38.520Z,59.50
2022-10-13T20:54:05.148Z,59.60
2022-10-13T20:56:31.949Z,59.30
2022-10-13T20:58:58.625Z,59.40
2022-10-13T21:01:25.221Z,59.40
2022-10-13T21:03:51.807Z,59.40
2022-10-13T21:06:18.421Z,59.50
2022-10-13T21:08:45.244Z,59.20
2022-10-13T21:11:12.044Z,59.40
2022-10-13T21:13:38.676Z,59.40
2022-10-13T21:16:05.297Z,59.20
2022-10-13T21:18:31.903Z,59.20
2022-10-13T21:20:58.502Z,59.30
2022-10-13T21:23:25.117Z,59.10
2022-10-13T21:25:51.735Z,59.20
2022-10-13T21:28:18.729Z,59.10
2022-10-13T21:30:45.362Z,59.00
2022-10-13T21:33:11.982Z,59.10
2022-10-13T21:35:38.572Z,59.10
2022-10-13T21:38:05.176Z,59.10
2022-10-13T21:40:31.777Z,59.00
2022-10-13T21:42:58.370Z,59.00
2022-10-13T21:45:24.958Z,59.10
2022-10-13T21:47:51.778Z,59.10
2022-10-13T21:50:18.367Z,58.90
2022-10-13T21:52:45.173Z,59.00
2022-10-13T21:55:11.784Z,59.10
2022-10-13T21:57:38.392Z,59.00
2022-10-13T22:00:04.991Z,59.10
2022-10-13T22:02:31.614Z,59.20
2022-10-13T22:04:58.241Z,59.20
2022-10-13T22:07:24.863Z,59.10
2022-10-13T22:09:51.470Z,58.90
2022-10-13T22:12:18.069Z,59.10
2022-10-13T22:14:44.913Z,59.10
2022-10-13T22:17:11.528Z,58.90
2022-10-13T22:19:38.149Z,59.00
2022-10-13T22:22:04.759Z,59.10
2022-10-13T22:24:31.586Z,59.00
2022-10-13T22:26:58.186Z,59.00
2022-10-13T22:29:24.782Z,59.00
2022-10-13T22:31:51.625Z,59.00
2022-10-13T22:34:18.251Z,58.90
2022-10-13T22:36:45.494Z,58.90
2022-10-13T22:39:12.232Z,58.90
2022-10-13T22:41:39.180Z,58.90
2022-10-13T22:44:05.786Z,59.00
2022-10-13T22:46:32.386Z,58.90
2022-10-13T22:48:58.986Z,58.90
2022-10-13T22:51:25.833Z,58.80
2022-10-13T22:53:52.427Z,58.90
2022-10-13T22:56:19.042Z,58.80
2022-10-13T22:58:45.642Z,58.80
2022-10-13T23:01:12.249Z,58.90
2022-10-13T23:03:39.185Z,58.90
2022-10-13T23:06:05.819Z,58.90
2022-10-13T23:08:32.629Z,58.90
2022-10-13T23:10:59.231Z,58.90
2022-10-13T23:13:26.033Z,58.90
2022-10-13T23:15:52.658Z,58.90
2022-10-13T23:18:19.463Z,59.00
2022-10-13T23:20:46.061Z,59.00
2022-10-13T23:23:12.673Z,58.90
2022-10-13T23:25:39.274Z,58.90
2022-10-13T23:28:05.889Z,58.90
2022-10-13T23:30:32.509Z,58.80
2022-10-13T23:32:59.133Z,58.90
2022-10-13T23:35:25.738Z,59.00
2022-10-13T23:37:52.592Z,58.90
2022-10-13T23:40:19.195Z,59.00
2022-10-13T23:42:45.784Z,59.00
2022-10-13T23:45:12.384Z,59.00
2022-10-13T23:47:38.993Z,59.20
2022-10-13T23:50:05.613Z,59.00
2022-10-13T23:52:32.200Z,59.10
2022-10-13T23:54:59.022Z,59.00
2022-10-13T23:57:25.632Z,59.10
2022-10-13T23:59:52.245Z,58.90
